Time;durP1;ratioP1;P1;durP2;ratioP2;P2;SDS_P1;SDS_P2;PMS_P1;PMS_P2;Temp;Humidity;BMP_temperature;BMP_pressure;BME280_temperature;BME280_humidity;BME280_pressure;Samples;Min_cycle;Max_cycle;Signal;HPM_P1;HPM_P2
2021/08/02 00:00:02;;;;;;;13.93;6.80;;;;;;;;;;10275352;28;20048;-61
2021/08/02 00:05:11;;;;;;;10.93;7.13;;;;;;;;;;10287061;28;21236;-61
2021/08/02 00:10:11;;;;;;;12.10;7.45;;;;;;;;;;10275409;28;20072;-61
2021/08/02 00:15:11;;;;;;;10.00;7.50;;;;;;;;;;10275045;28;20049;-59
2021/08/02 00:20:12;;;;;;;9.32;6.95;;;;;;;;;;10274425;28;20060;-61
2021/08/02 00:25:12;;;;;;;13.30;7.88;;;;;;;;;;10275363;28;20049;-61
2021/08/02 00:30:10;;;;;;;9.90;7.57;;;;;;;;;;10278862;28;20080;-61
2021/08/02 00:35:08;;;;;;;13.85;7.72;;;;;;;;;;10283057;28;20529;-61
2021/08/02 00:40:30;;;;;;;12.63;7.90;;;;;;;;;;10282979;28;20517;-61
2021/08/02 00:45:29;;;;;;;16.42;8.07;;;;;;;;;;10282914;28;20052;-61
2021/08/02 00:50:29;;;;;;;11.70;8.60;;;;;;;;;;10281878;28;20072;-61
2021/08/02 00:55:30;;;;;;;10.38;7.57;;;;;;;;;;10282146;28;20072;-59
2021/08/02 01:00:28;;;;;;;8.00;6.60;;;;;;;;;;10281008;28;20379;-62
2021/08/02 01:05:27;;;;;;;11.30;7.47;;;;;;;;;;10281864;28;20073;-62
2021/08/02 01:10:31;;;;;;;12.85;7.57;;;;;;;;;;10281402;28;20087;-60
2021/08/02 01:15:30;;;;;;;10.57;6.50;;;;;;;;;;10281416;28;20449;-61
2021/08/02 01:20:32;;;;;;;15.88;7.82;;;;;;;;;;10280682;28;20060;-61
2021/08/02 01:25:56;;;;;;;11.70;8.25;;;;;;;;;;10281525;28;20147;-61
2021/08/02 01:30:58;;;;;;;14.52;7.75;;;;;;;;;;10280840;28;20490;-61
2021/08/02 01:36:06;;;;;;;8.95;6.68;;;;;;;;;;10279288;28;20060;-61
2021/08/02 01:41:08;;;;;;;8.98;8.15;;;;;;;;;;10277981;28;20057;-60
2021/08/02 01:46:12;;;;;;;12.52;6.43;;;;;;;;;;10280789;28;20057;-60
2021/08/02 01:51:18;;;;;;;13.77;8.07;;;;;;;;;;10280374;28;20080;-61
2021/08/02 01:56:18;;;;;;;10.27;7.78;;;;;;;;;;10279038;28;20049;-61
2021/08/02 02:01:23;;;;;;;10.45;7.68;;;;;;;;;;10278921;28;20064;-61
2021/08/02 02:06:25;;;;;;;11.07;7.57;;;;;;;;;;10279672;28;20053;-61
2021/08/02 02:11:24;;;;;;;17.95;8.10;;;;;;;;;;10277623;28;20041;-60
2021/08/02 02:16:30;;;;;;;12.82;7.65;;;;;;;;;;10277975;28;20053;-61
2021/08/02 02:21:29;;;;;;;10.57;7.53;;;;;;;;;;10277400;28;20068;-61
2021/08/02 02:26:34;;;;;;;17.13;7.85;;;;;;;;;;10277412;28;20060;-60
2021/08/02 02:31:37;;;;;;;17.58;8.70;;;;;;;;;;10276904;28;20548;-61
2021/08/02 02:36:40;;;;;;;12.20;7.97;;;;;;;;;;10277462;28;20053;-61
2021/08/02 02:41:42;;;;;;;10.85;7.15;;;;;;;;;;10278402;28;20049;-61
2021/08/02 02:46:43;;;;;;;11.32;7.30;;;;;;;;;;10276280;28;20068;-60
2021/08/02 02:51:45;;;;;;;11.90;8.97;;;;;;;;;;10276350;28;20052;-60
2021/08/02 02:56:44;;;;;;;12.80;7.50;;;;;;;;;;10277919;28;20488;-60
2021/08/02 03:01:45;;;;;;;17.15;7.88;;;;;;;;;;10276270;28;20490;-61
2021/08/02 03:06:49;;;;;;;13.07;7.07;;;;;;;;;;10274325;28;20049;-60
2021/08/02 03:11:48;;;;;;;12.18;7.47;;;;;;;;;;10273971;28;20072;-61
2021/08/02 03:16:48;;;;;;;15.85;7.63;;;;;;;;;;10272702;28;20525;-61
2021/08/02 03:21:46;;;;;;;19.95;7.28;;;;;;;;;;10272849;28;20490;-60
2021/08/02 03:26:47;;;;;;;25.50;8.80;;;;;;;;;;10259241;28;20083;-60
2021/08/02 03:31:47;;;;;;;22.13;9.13;;;;;;;;;;10264193;28;20076;-60
2021/08/02 03:36:47;;;;;;;16.33;8.18;;;;;;;;;;10269202;28;20068;-59
2021/08/02 03:41:47;;;;;;;17.33;7.85;;;;;;;;;;10270775;28;20358;-60
2021/08/02 03:46:45;;;;;;;15.27;8.32;;;;;;;;;;10273611;28;20076;-61
2021/08/02 03:51:45;;;;;;;21.45;8.45;;;;;;;;;;10276008;28;20489;-60
2021/08/02 03:56:45;;;;;;;18.00;7.95;;;;;;;;;;10275310;28;20048;-60
2021/08/02 04:01:45;;;;;;;23.38;8.73;;;;;;;;;;10275920;28;20077;-61
2021/08/02 04:06:43;;;;;;;21.05;9.40;;;;;;;;;;10283089;28;20417;-60
2021/08/02 04:11:43;;;;;;;19.20;8.68;;;;;;;;;;10283635;28;20077;-61
2021/08/02 04:16:43;;;;;;;15.45;8.25;;;;;;;;;;10284042;28;20413;-60
2021/08/02 04:21:42;;;;;;;19.80;7.90;;;;;;;;;;10283127;28;20103;-60
2021/08/02 04:26:41;;;;;;;15.30;8.02;;;;;;;;;;10282243;28;20706;-60
2021/08/02 04:31:40;;;;;;;13.95;7.25;;;;;;;;;;10283161;28;20072;-61
2021/08/02 04:36:40;;;;;;;20.60;8.27;;;;;;;;;;10283072;28;20069;-61
2021/08/02 04:41:42;;;;;;;16.88;9.48;;;;;;;;;;10282960;28;20047;-60
2021/08/02 04:46:40;;;;;;;21.63;7.95;;;;;;;;;;10283012;28;20056;-61
2021/08/02 04:51:40;;;;;;;10.93;7.15;;;;;;;;;;10282039;28;20045;-61
2021/08/02 04:56:38;;;;;;;20.30;7.32;;;;;;;;;;10277861;28;20095;-61
2021/08/02 05:01:37;;;;;;;15.85;7.88;;;;;;;;;;10278620;28;20076;-61
2021/08/02 05:06:35;;;;;;;19.40;7.32;;;;;;;;;;10277721;28;20112;-61
2021/08/02 05:11:35;;;;;;;17.52;8.55;;;;;;;;;;10281786;28;20036;-61
2021/08/02 05:16:33;;;;;;;20.90;10.38;;;;;;;;;;10281268;28;20080;-61
2021/08/02 05:21:32;;;;;;;24.27;8.13;;;;;;;;;;10280933;28;20057;-61
2021/08/02 05:26:30;;;;;;;16.38;8.13;;;;;;;;;;10280816;28;20077;-61
2021/08/02 05:31:30;;;;;;;18.00;8.13;;;;;;;;;;10281026;28;20048;-61
2021/08/02 05:36:28;;;;;;;18.70;7.55;;;;;;;;;;10280541;28;20081;-62
2021/08/02 05:41:27;;;;;;;26.55;9.10;;;;;;;;;;10280338;28;20045;-61
2021/08/02 05:46:25;;;;;;;20.20;8.55;;;;;;;;;;10280042;28;20049;-61
2021/08/02 05:51:25;;;;;;;27.42;8.45;;;;;;;;;;10279826;28;20490;-61
2021/08/02 05:56:24;;;;;;;19.27;8.07;;;;;;;;;;10279590;28;20087;-60
2021/08/02 06:01:22;;;;;;;23.20;8.90;;;;;;;;;;10279890;28;20045;-60
2021/08/02 06:06:20;;;;;;;22.77;9.30;;;;;;;;;;10279784;28;20053;-61
2021/08/02 06:11:20;;;;;;;29.98;9.50;;;;;;;;;;10279258;28;20048;-61
2021/08/02 06:16:21;;;;;;;26.25;9.45;;;;;;;;;;10279433;28;20052;-61
2021/08/02 06:21:33;;;;;;;25.35;8.38;;;;;;;;;;10278557;28;20101;-61
2021/08/02 06:26:33;;;;;;;28.13;8.30;;;;;;;;;;10278062;28;20045;-61
2021/08/02 06:31:32;;;;;;;23.23;8.50;;;;;;;;;;10278506;28;20158;-61
2021/08/02 06:36:30;;;;;;;24.30;8.95;;;;;;;;;;10278410;28;20080;-60
2021/08/02 06:41:29;;;;;;;24.58;9.20;;;;;;;;;;10278065;28;20033;-61
2021/08/02 06:46:28;;;;;;;29.33;8.80;;;;;;;;;;10277530;28;20040;-62
2021/08/02 06:51:27;;;;;;;21.10;8.65;;;;;;;;;;10277500;28;20363;-62
2021/08/02 06:56:25;;;;;;;25.55;9.95;;;;;;;;;;10277627;28;20080;-60
2021/08/02 07:01:23;;;;;;;25.92;7.50;;;;;;;;;;10277736;28;20049;-61
2021/08/02 07:06:23;;;;;;;33.88;9.23;;;;;;;;;;10275604;28;20049;-61
2021/08/02 07:11:22;;;;;;;21.80;9.32;;;;;;;;;;10276364;28;20589;-61
2021/08/02 07:16:20;;;;;;;23.67;8.02;;;;;;;;;;10276758;28;20091;-61
2021/08/02 07:21:19;;;;;;;30.85;8.52;;;;;;;;;;10275908;28;20513;-61
2021/08/02 07:26:18;;;;;;;23.80;6.82;;;;;;;;;;10276140;28;20406;-61
2021/08/02 07:31:17;;;;;;;29.30;7.55;;;;;;;;;;10276279;28;20065;-61
2021/08/02 07:36:15;;;;;;;24.65;7.13;;;;;;;;;;10276178;28;20548;-61
2021/08/02 07:41:14;;;;;;;20.40;7.18;;;;;;;;;;10275246;28;20049;-61
2021/08/02 07:46:13;;;;;;;23.20;7.30;;;;;;;;;;10275641;28;20048;-61
2021/08/02 07:51:12;;;;;;;22.40;7.07;;;;;;;;;;10275443;28;20037;-61
2021/08/02 07:56:10;;;;;;;18.40;8.05;;;;;;;;;;10275735;28;20138;-62
2021/08/02 08:01:08;;;;;;;31.35;12.75;;;;;;;;;;10273919;28;20093;-62
2021/08/02 08:06:10;;;;;;;18.90;7.82;;;;;;;;;;10275685;28;20478;-61
2021/08/02 08:11:09;;;;;;;21.35;7.90;;;;;;;;;;10275171;28;20084;-61
2021/08/02 08:16:08;;;;;;;21.17;8.02;;;;;;;;;;10275280;28;20072;-62
2021/08/02 08:21:06;;;;;;;27.40;8.25;;;;;;;;;;10274606;28;20053;-61
2021/08/02 08:26:06;;;;;;;18.60;7.55;;;;;;;;;;10275629;28;20049;-61
2021/08/02 08:31:04;;;;;;;30.63;8.82;;;;;;;;;;10274875;28;20049;-61
2021/08/02 08:36:02;;;;;;;22.27;9.32;;;;;;;;;;10274910;28;20104;-61
2021/08/02 08:41:01;;;;;;;22.63;9.23;;;;;;;;;;10274517;28;20432;-61
2021/08/02 08:46:01;;;;;;;19.65;9.82;;;;;;;;;;10274677;28;20060;-61
2021/08/02 08:51:02;;;;;;;29.13;7.90;;;;;;;;;;10278559;28;20045;-61
2021/08/02 08:56:01;;;;;;;18.73;8.15;;;;;;;;;;10281813;28;20088;-61
2021/08/02 09:01:01;;;;;;;25.35;8.45;;;;;;;;;;10281746;28;20083;-61
2021/08/02 09:06:03;;;;;;;27.75;7.53;;;;;;;;;;10281928;28;20438;-61
2021/08/02 09:11:02;;;;;;;33.73;9.60;;;;;;;;;;10281348;28;20496;-61
2021/08/02 09:16:12;;;;;;;24.17;8.25;;;;;;;;;;10281071;28;20727;-61
2021/08/02 09:21:11;;;;;;;23.20;7.60;;;;;;;;;;10280858;28;20514;-61
2021/08/02 09:26:10;;;;;;;24.73;8.93;;;;;;;;;;10281006;28;20053;-62
2021/08/02 09:31:08;;;;;;;23.48;7.78;;;;;;;;;;10280724;28;20045;-62
2021/08/02 09:36:08;;;;;;;21.80;7.53;;;;;;;;;;10280466;28;20072;-62
2021/08/02 09:41:06;;;;;;;24.92;8.05;;;;;;;;;;10280492;28;20048;-62
2021/08/02 09:46:05;;;;;;;21.60;7.22;;;;;;;;;;10279973;28;20513;-62
2021/08/02 09:51:09;;;;;;;21.80;6.75;;;;;;;;;;10279831;28;20049;-62
2021/08/02 09:56:07;;;;;;;26.45;7.75;;;;;;;;;;10279814;28;20080;-63
2021/08/02 10:01:06;;;;;;;22.75;7.85;;;;;;;;;;10278333;28;20075;-61
2021/08/02 10:06:04;;;;;;;20.08;8.48;;;;;;;;;;10279311;28;20080;-62
2021/08/02 10:11:07;;;;;;;23.85;6.90;;;;;;;;;;10279588;28;20041;-62
2021/08/02 10:16:07;;;;;;;21.23;6.28;;;;;;;;;;10278002;28;20099;-62
2021/08/02 10:21:07;;;;;;;20.77;6.93;;;;;;;;;;10278742;28;20247;-62
2021/08/02 10:26:17;;;;;;;22.17;6.78;;;;;;;;;;10278478;28;20439;-61
2021/08/02 10:31:16;;;;;;;22.45;6.35;;;;;;;;;;10277483;28;20041;-62
2021/08/02 10:36:32;;;;;;;26.10;6.97;;;;;;;;;;10278080;28;20076;-62
2021/08/02 10:41:32;;;;;;;22.75;6.03;;;;;;;;;;10276784;28;20067;-62
2021/08/02 10:46:31;;;;;;;22.08;6.63;;;;;;;;;;10277466;28;20084;-62
2021/08/02 10:51:29;;;;;;;20.27;6.50;;;;;;;;;;10277666;28;20052;-62
2021/08/02 10:56:48;;;;;;;29.85;7.47;;;;;;;;;;10277469;28;20076;-62
2021/08/02 11:01:47;;;;;;;26.17;6.70;;;;;;;;;;10277777;28;20047;-62
2021/08/02 11:06:47;;;;;;;21.67;6.78;;;;;;;;;;10277811;28;20041;-62
2021/08/02 11:11:47;;;;;;;29.73;6.47;;;;;;;;;;10277285;28;20056;-62
2021/08/02 11:16:46;;;;;;;19.05;5.47;;;;;;;;;;10277198;28;20509;-62
2021/08/02 11:21:46;;;;;;;20.60;7.20;;;;;;;;;;10276551;28;20053;-62
2021/08/02 11:26:49;;;;;;;12.40;5.40;;;;;;;;;;10276488;28;20044;-62
2021/08/02 11:31:58;;;;;;;19.35;5.28;;;;;;;;;;10276480;28;20072;-63
2021/08/02 11:37:00;;;;;;;25.90;6.97;;;;;;;;;;10275525;28;20096;-62
2021/08/02 11:42:00;;;;;;;25.38;6.35;;;;;;;;;;10276441;28;20414;-62
2021/08/02 11:47:00;;;;;;;19.45;6.45;;;;;;;;;;10276064;28;20470;-60
2021/08/02 11:51:58;;;;;;;22.27;5.35;;;;;;;;;;10275746;28;20041;-62
2021/08/02 11:56:56;;;;;;;24.70;6.47;;;;;;;;;;10276089;28;20076;-62
2021/08/02 12:01:59;;;;;;;16.00;5.65;;;;;;;;;;10275722;28;20486;-61
2021/08/02 12:07:07;;;;;;;23.77;6.38;;;;;;;;;;10275678;28;20084;-61
2021/08/02 12:12:06;;;;;;;17.77;5.20;;;;;;;;;;10275708;28;20053;-62
2021/08/02 12:17:07;;;;;;;28.38;7.03;;;;;;;;;;10275324;28;20515;-62
2021/08/02 12:22:05;;;;;;;20.50;6.85;;;;;;;;;;10275030;28;20056;-61
2021/08/02 12:27:04;;;;;;;23.17;6.25;;;;;;;;;;10281222;28;20072;-61
2021/08/02 12:32:03;;;;;;;17.27;5.60;;;;;;;;;;10283445;28;20045;-61
2021/08/02 12:37:03;;;;;;;24.58;5.00;;;;;;;;;;10282221;28;20077;-62
2021/08/02 12:42:01;;;;;;;22.02;6.07;;;;;;;;;;10283023;28;20525;-62
2021/08/02 12:47:00;;;;;;;36.53;8.60;;;;;;;;;;10281385;28;20502;-60
2021/08/02 12:52:01;;;;;;;17.93;4.83;;;;;;;;;;10282811;28;20083;-62
2021/08/02 12:57:00;;;;;;;16.17;5.40;;;;;;;;;;10282559;28;20079;-62
2021/08/02 13:01:59;;;;;;;19.85;6.20;;;;;;;;;;10281711;28;20072;-62
2021/08/02 13:06:57;;;;;;;18.42;5.47;;;;;;;;;;10282007;28;20413;-62
2021/08/02 13:11:56;;;;;;;17.73;5.75;;;;;;;;;;10281830;28;20068;-62
2021/08/02 13:16:55;;;;;;;21.38;6.05;;;;;;;;;;10281337;28;20072;-62
2021/08/02 13:21:54;;;;;;;19.33;6.18;;;;;;;;;;10280952;28;20072;-62
2021/08/02 13:27:00;;;;;;;18.92;5.45;;;;;;;;;;10281303;28;20048;-61
2021/08/02 13:32:00;;;;;;;19.52;5.78;;;;;;;;;;10280988;28;20060;-62
2021/08/02 13:36:59;;;;;;;16.35;5.10;;;;;;;;;;10279419;28;20044;-62
2021/08/02 13:41:58;;;;;;;33.65;5.85;;;;;;;;;;10280493;28;20414;-62
2021/08/02 13:46:57;;;;;;;23.23;6.00;;;;;;;;;;10279049;28;20387;-62
2021/08/02 13:51:56;;;;;;;17.48;5.57;;;;;;;;;;10280424;28;20045;-62
2021/08/02 13:56:55;;;;;;;16.45;5.35;;;;;;;;;;10280141;28;20077;-62
2021/08/02 14:02:01;;;;;;;24.63;5.95;;;;;;;;;;10280271;28;20406;-62
2021/08/02 14:07:01;;;;;;;11.30;5.25;;;;;;;;;;10279743;28;20064;-62
2021/08/02 14:12:00;;;;;;;23.00;6.25;;;;;;;;;;10279460;28;20092;-62
2021/08/02 14:17:02;;;;;;;14.38;4.25;;;;;;;;;;10278709;28;20076;-63
2021/08/02 14:22:04;;;;;;;16.98;5.20;;;;;;;;;;10278874;28;20545;-62
2021/08/02 14:27:02;;;;;;;23.30;5.72;;;;;;;;;;10263753;28;20108;-60
2021/08/02 14:32:01;;;;;;;16.75;5.95;;;;;;;;;;10276282;28;20061;-60
2021/08/02 14:37:01;;;;;;;18.20;6.40;;;;;;;;;;10260581;28;20102;-58
2021/08/02 14:42:01;;;;;;;16.50;5.55;;;;;;;;;;10259073;28;20425;-59
2021/08/02 14:47:00;;;;;;;16.85;5.53;;;;;;;;;;10255207;28;20462;-58
2021/08/02 14:51:59;;;;;;;14.05;5.45;;;;;;;;;;10257128;28;20085;-61
2021/08/02 14:57:01;;;;;;;17.80;7.80;;;;;;;;;;10257326;28;20084;-61
2021/08/02 15:01:59;;;;;;;;;;;;;;;;;;10247926;28;20462;-61
2021/08/02 15:07:00;;;;;;;18.00;6.15;;;;;;;;;;10251169;28;19964;-59
2021/08/02 15:11:58;;;;;;;14.75;5.90;;;;;;;;;;10254655;28;20529;-59
2021/08/02 15:16:57;;;;;;;20.92;6.25;;;;;;;;;;10262503;28;20087;-58
2021/08/02 15:21:58;;;;;;;25.52;7.05;;;;;;;;;;10248971;28;20091;-59
2021/08/02 15:27:02;;;;;;;24.33;5.10;;;;;;;;;;10259614;28;20073;-59
2021/08/02 15:32:02;;;;;;;18.92;6.22;;;;;;;;;;10255087;28;20073;-59
2021/08/02 15:37:05;;;;;;;23.90;7.22;;;;;;;;;;10257507;28;20183;-61
2021/08/02 15:42:05;;;;;;;24.60;5.93;;;;;;;;;;10259067;28;20076;-61
2021/08/02 15:47:04;;;;;;;19.30;5.50;;;;;;;;;;10256164;28;20081;-60
2021/08/02 15:52:04;;;;;;;13.73;5.18;;;;;;;;;;10264133;28;20056;-60
2021/08/02 15:57:02;;;;;;;12.45;5.45;;;;;;;;;;10249044;28;20076;-61
2021/08/02 16:02:03;;;;;;;16.63;5.75;;;;;;;;;;10269857;28;20366;-61
2021/08/02 16:07:03;;;;;;;14.82;5.55;;;;;;;;;;10261834;28;20073;-60
2021/08/02 16:12:07;;;;;;;15.02;5.03;;;;;;;;;;10252323;28;20091;-61
2021/08/02 16:17:08;;;;;;;22.23;5.25;;;;;;;;;;10269196;28;20092;-61
2021/08/02 16:22:06;;;;;;;14.80;5.68;;;;;;;;;;10269445;28;20049;-61
2021/08/02 16:27:05;;;;;;;33.88;6.05;;;;;;;;;;10267722;28;20072;-61
2021/08/02 16:32:06;;;;;;;17.85;5.63;;;;;;;;;;10261393;28;20426;-59
2021/08/02 16:37:05;;;;;;;20.27;6.53;;;;;;;;;;10255549;28;20081;-60
2021/08/02 16:42:05;;;;;;;16.02;5.07;;;;;;;;;;10258667;28;20064;-59
2021/08/02 16:47:04;;;;;;;19.10;5.22;;;;;;;;;;10264141;28;20116;-60
2021/08/02 16:52:03;;;;;;;23.90;7.05;;;;;;;;;;10256009;28;20076;-62
2021/08/02 16:57:02;;;;;;;18.33;6.13;;;;;;;;;;10246013;28;20085;-61
2021/08/02 17:02:01;;;;;;;16.90;6.22;;;;;;;;;;10243084;28;20077;-60
2021/08/02 17:06:59;;;;;;;21.58;7.05;;;;;;;;;;10253477;28;20529;-61
2021/08/02 17:41:34;;;;;;;17.25;5.68;;;;;;;;;;10397329;27;20392;-63
2021/08/02 17:46:32;;;;;;;17.10;6.45;;;;;;;;;;10388988;28;20063;-68
2021/08/02 17:51:31;;;;;;;23.45;7.32;;;;;;;;;;10370805;28;20468;-67
2021/08/02 17:56:30;;;;;;;19.65;6.32;;;;;;;;;;10372342;28;20394;-67
2021/08/02 18:01:30;;;;;;;15.43;6.35;;;;;;;;;;10371090;28;20048;-66
2021/08/02 18:06:30;;;;;;;21.75;8.18;;;;;;;;;;10362689;28;20087;-67
2021/08/02 18:11:28;;;;;;;17.80;9.52;;;;;;;;;;10362581;28;20082;-68
2021/08/02 18:16:29;;;;;;;16.65;7.65;;;;;;;;;;10357103;28;20075;-67
2021/08/02 18:21:29;;;;;;;15.57;6.78;;;;;;;;;;10374257;28;20060;-69
2021/08/02 18:26:28;;;;;;;15.05;5.50;;;;;;;;;;10361495;28;20075;-67
2021/08/02 18:31:26;;;;;;;21.45;6.22;;;;;;;;;;10356212;28;20052;-67
2021/08/02 18:36:25;;;;;;;18.20;5.00;;;;;;;;;;10358675;28;20610;-67
2021/08/02 18:41:25;;;;;;;16.10;6.43;;;;;;;;;;10351618;28;20090;-66
2021/08/02 18:46:23;;;;;;;22.63;5.95;;;;;;;;;;10335582;28;20118;-66
2021/08/02 18:51:22;;;;;;;14.77;4.93;;;;;;;;;;10339953;28;20068;-69
2021/08/02 18:56:20;;;;;;;18.00;6.03;;;;;;;;;;10347260;28;20508;-67
2021/08/02 19:01:20;;;;;;;17.52;5.50;;;;;;;;;;10348574;28;20091;-67
2021/08/02 19:06:19;;;;;;;16.20;5.85;;;;;;;;;;10327612;28;20588;-67
2021/08/02 19:11:20;;;;;;;15.10;4.88;;;;;;;;;;10361265;28;20044;-67
2021/08/02 19:16:20;;;;;;;21.83;5.95;;;;;;;;;;10361981;28;20055;-67
2021/08/02 19:21:20;;;;;;;20.48;5.00;;;;;;;;;;10359670;28;20345;-67
2021/08/02 19:26:19;;;;;;;14.43;5.18;;;;;;;;;;10338923;28;20040;-67
2021/08/02 19:31:19;;;;;;;21.70;6.50;;;;;;;;;;10335033;28;20083;-67
2021/08/02 19:36:19;;;;;;;18.95;7.32;;;;;;;;;;10320611;28;20445;-67
2021/08/02 19:41:19;;;;;;;18.00;7.70;;;;;;;;;;10332428;28;20080;-67
2021/08/02 19:46:18;;;;;;;21.17;8.50;;;;;;;;;;10329598;28;20040;-67
2021/08/02 19:51:19;;;;;;;14.13;7.35;;;;;;;;;;10315772;28;20048;-67
2021/08/02 19:56:19;;;;;;;26.92;8.68;;;;;;;;;;10323378;28;20474;-67
2021/08/02 20:01:19;;;;;;;21.63;7.57;;;;;;;;;;10318492;28;20076;-68
2021/08/02 20:06:20;;;;;;;18.42;7.10;;;;;;;;;;10318813;28;20063;-67
2021/08/02 20:11:20;;;;;;;18.35;7.30;;;;;;;;;;10318227;28;20521;-68
2021/08/02 20:16:18;;;;;;;12.13;6.60;;;;;;;;;;10317968;28;20041;-68
2021/08/02 20:21:18;;;;;;;20.75;6.28;;;;;;;;;;10342163;28;20068;-67
2021/08/02 20:26:20;;;;;;;14.35;6.30;;;;;;;;;;10343064;28;20516;-67
2021/08/02 20:31:18;;;;;;;15.02;5.15;;;;;;;;;;10356710;28;20083;-67
2021/08/02 20:36:17;;;;;;;20.05;8.15;;;;;;;;;;10333286;28;20466;-67
2021/08/02 20:41:23;;;;;;;18.25;7.38;;;;;;;;;;10316979;28;20080;-68
2021/08/02 20:46:21;;;;;;;18.23;8.97;;;;;;;;;;10317057;28;20045;-67
2021/08/02 20:51:20;;;;;;;22.98;8.20;;;;;;;;;;10339995;28;20444;-67
2021/08/02 20:56:19;;;;;;;22.05;7.97;;;;;;;;;;10315047;28;20071;-68
2021/08/02 21:01:23;;;;;;;17.13;8.90;;;;;;;;;;10316220;28;20044;-67
2021/08/02 21:06:29;;;;;;;20.63;8.85;;;;;;;;;;10329694;28;20529;-67
2021/08/02 21:11:28;;;;;;;17.67;8.35;;;;;;;;;;10357003;28;20055;-68
2021/08/02 21:16:31;;;;;;;18.75;7.68;;;;;;;;;;10356868;28;20097;-68
2021/08/02 21:21:30;;;;;;;19.80;9.10;;;;;;;;;;10357167;28;20076;-68
2021/08/02 21:26:29;;;;;;;23.63;7.30;;;;;;;;;;10356941;28;20060;-68
2021/08/02 21:31:29;;;;;;;18.85;7.88;;;;;;;;;;10356815;28;20094;-67
2021/08/02 21:36:28;;;;;;;18.13;6.53;;;;;;;;;;10356859;28;20432;-68
2021/08/02 21:41:27;;;;;;;20.15;5.85;;;;;;;;;;10356475;28;20087;-67
2021/08/02 21:46:25;;;;;;;20.48;5.45;;;;;;;;;;10356750;28;20044;-68
2021/08/02 21:51:25;;;;;;;16.00;5.78;;;;;;;;;;10356501;28;20055;-67
2021/08/02 21:56:24;;;;;;;18.05;5.88;;;;;;;;;;10357046;28;20051;-67
2021/08/02 22:01:22;;;;;;;16.23;5.10;;;;;;;;;;10356321;28;20075;-67
2021/08/02 22:06:21;;;;;;;16.63;5.43;;;;;;;;;;10356353;28;20051;-68
2021/08/02 22:11:21;;;;;;;12.93;7.38;;;;;;;;;;10356333;28;20063;-66
2021/08/02 22:16:19;;;;;;;21.58;6.38;;;;;;;;;;10360771;28;20048;-67
2021/08/02 22:21:17;;;;;;;13.48;5.88;;;;;;;;;;10363815;28;20086;-66
2021/08/02 22:26:16;;;;;;;19.60;7.47;;;;;;;;;;10363072;28;20063;-66
2021/08/02 22:31:15;;;;;;;14.57;6.03;;;;;;;;;;10363542;28;20044;-67
2021/08/02 22:36:14;;;;;;;16.73;5.95;;;;;;;;;;10363745;28;20048;-66
2021/08/02 22:41:12;;;;;;;18.48;6.68;;;;;;;;;;10362640;28;20052;-66
2021/08/02 22:46:11;;;;;;;14.25;5.28;;;;;;;;;;10362607;28;20044;-67
2021/08/02 22:51:11;;;;;;;16.88;6.28;;;;;;;;;;10362487;28;20040;-66
2021/08/02 22:56:09;;;;;;;20.67;7.28;;;;;;;;;;10362473;28;20044;-67
2021/08/02 23:01:08;;;;;;;19.25;6.55;;;;;;;;;;10362318;28;20087;-67
2021/08/02 23:06:09;;;;;;;18.27;6.85;;;;;;;;;;10361950;28;20076;-67
2021/08/02 23:11:09;;;;;;;10.80;6.55;;;;;;;;;;10361918;28;20048;-66
2021/08/02 23:16:08;;;;;;;17.10;6.85;;;;;;;;;;10363129;28;20047;-67
2021/08/02 23:21:07;;;;;;;19.02;7.63;;;;;;;;;;10361390;28;20087;-67
2021/08/02 23:26:06;;;;;;;16.02;6.45;;;;;;;;;;10361327;28;20060;-68
2021/08/02 23:31:06;;;;;;;14.88;6.88;;;;;;;;;;10361311;28;20094;-68
2021/08/02 23:36:06;;;;;;;17.48;7.93;;;;;;;;;;10360645;28;20056;-67
2021/08/02 23:41:05;;;;;;;19.33;6.97;;;;;;;;;;10360894;28;20059;-67
2021/08/02 23:46:03;;;;;;;11.73;7.55;;;;;;;;;;10361786;28;20489;-67
2021/08/02 23:51:03;;;;;;;13.60;6.03;;;;;;;;;;10358738;28;20044;-67
2021/08/02 23:56:02;;;;;;;16.10;7.00;;;;;;;;;;10358572;28;20071;-67
